createdAt,value
2023-05-06T00:00:27.559Z,75.15
2023-05-06T00:01:27.559Z,71.87
2023-05-06T00:02:27.648Z,70.74
2023-05-06T00:03:27.788Z,74.42
2023-05-06T00:04:27.659Z,76.22
2023-05-06T00:05:27.693Z,75.40
2023-05-06T00:06:27.682Z,74.51
2023-05-06T00:07:27.683Z,70.83
2023-05-06T00:08:27.763Z,71.28
2023-05-06T00:09:27.733Z,73.11
2023-05-06T00:10:27.778Z,76.11
2023-05-06T00:11:27.781Z,76.83
2023-05-06T00:12:28.235Z,71.23
2023-05-06T00:13:27.828Z,71.76
2023-05-06T00:14:27.843Z,73.69
2023-05-06T00:15:29.127Z,74.72
2023-05-06T00:17:27.901Z,72.90
2023-05-06T00:18:27.893Z,74.33
2023-05-06T00:19:27.904Z,73.78
2023-05-06T00:20:27.956Z,71.43
2023-05-06T00:21:28.040Z,78.45
2023-05-06T00:22:27.992Z,70.85
2023-05-06T00:23:27.983Z,72.31
2023-05-06T00:24:28.038Z,73.03
2023-05-06T00:25:28.030Z,73.93
2023-05-06T00:26:28.061Z,75.91
2023-05-06T00:27:28.106Z,73.37
2023-05-06T00:28:28.093Z,73.71
2023-05-06T00:29:28.155Z,72.40
2023-05-06T00:30:28.201Z,75.20
2023-05-06T00:31:28.243Z,72.04
2023-05-06T00:32:28.231Z,75.21
2023-05-06T00:33:28.230Z,71.40
2023-05-06T00:34:28.259Z,74.49
2023-05-06T00:35:28.294Z,70.71
2023-05-06T00:36:28.297Z,72.43
2023-05-06T00:37:28.452Z,71.76
2023-05-06T00:38:28.357Z,74.75
2023-05-06T00:39:28.376Z,71.76
2023-05-06T00:40:28.402Z,71.69
2023-05-06T00:41:28.413Z,72.24
2023-05-06T00:42:28.496Z,71.19
2023-05-06T00:43:28.508Z,73.49
2023-05-06T00:44:28.517Z,70.71
2023-05-06T00:45:28.547Z,71.22
2023-05-06T00:46:28.610Z,73.80
2023-05-06T00:47:28.603Z,75.40
2023-05-06T00:48:28.641Z,70.51
2023-05-06T00:49:28.652Z,71.62
2023-05-06T00:50:28.725Z,75.58
2023-05-06T00:51:28.713Z,77.23
2023-05-06T00:52:28.732Z,69.58
2023-05-06T00:53:28.845Z,74.23
2023-05-06T00:54:28.790Z,74.04
2023-05-06T00:55:28.841Z,69.92
2023-05-06T00:56:28.857Z,74.65
2023-05-06T00:57:28.884Z,70.63
2023-05-06T00:58:28.947Z,69.75
2023-05-06T00:59:28.920Z,74.51
2023-05-06T01:00:29.000Z,75.35
2023-05-06T01:01:29.066Z,73.24
2023-05-06T01:02:39.814Z,73.24
2023-05-06T01:03:30.084Z,73.39
2023-05-06T01:04:29.061Z,73.83
2023-05-06T01:05:29.023Z,72.64
2023-05-06T01:06:29.038Z,73.32
2023-05-06T01:07:29.009Z,74.15
2023-05-06T01:08:28.999Z,75.40
2023-05-06T01:09:29.008Z,71.68
2023-05-06T01:10:28.990Z,73.79
2023-05-06T01:11:29.024Z,75.90
2023-05-06T01:12:28.973Z,69.95
2023-05-06T01:13:29.228Z,73.09
2023-05-06T01:14:28.974Z,73.51
2023-05-06T01:15:28.939Z,69.33
2023-05-06T01:16:28.977Z,72.31
2023-05-06T01:17:28.978Z,71.62
2023-05-06T01:18:28.963Z,74.68
2023-05-06T01:19:28.913Z,73.79
2023-05-06T01:20:28.923Z,74.71
2023-05-06T01:21:28.976Z,76.88
2023-05-06T01:22:28.980Z,73.22
2023-05-06T01:23:29.057Z,74.06
2023-05-06T01:24:29.092Z,75.72
2023-05-06T01:25:29.140Z,71.33
2023-05-06T01:26:29.119Z,76.86
2023-05-06T01:27:29.176Z,74.67
2023-05-06T01:28:29.231Z,69.42
2023-05-06T01:29:29.197Z,74.98
2023-05-06T01:30:29.222Z,72.54
2023-05-06T01:31:29.321Z,74.03
2023-05-06T01:32:29.359Z,73.83
2023-05-06T01:33:29.737Z,72.52
2023-05-06T01:34:29.353Z,73.55
2023-05-06T01:35:29.351Z,75.18
2023-05-06T01:36:29.392Z,78.47
2023-05-06T01:37:29.439Z,74.96
2023-05-06T01:38:29.788Z,72.62
2023-05-06T01:39:29.468Z,73.97
2023-05-06T01:40:29.532Z,74.23
2023-05-06T01:41:29.725Z,68.48
2023-05-06T01:42:29.563Z,75.02
2023-05-06T01:43:29.570Z,74.80
2023-05-06T01:44:29.624Z,74.89
2023-05-06T01:45:29.655Z,72.88
2023-05-06T01:46:29.731Z,72.96
2023-05-06T01:47:29.762Z,71.21
2023-05-06T01:48:29.715Z,71.32
2023-05-06T01:49:29.794Z,73.35
2023-05-06T01:50:29.787Z,72.17
2023-05-06T01:51:29.848Z,69.51
2023-05-06T01:52:29.846Z,71.93
2023-05-06T01:53:29.870Z,74.19
2023-05-06T01:54:29.924Z,76.16
2023-05-06T01:55:29.954Z,74.60
2023-05-06T01:56:29.990Z,72.53
2023-05-06T01:57:30.135Z,72.84
2023-05-06T01:58:30.015Z,74.34
2023-05-06T01:59:30.059Z,76.49
2023-05-06T02:00:30.082Z,77.67
2023-05-06T02:01:30.127Z,74.69
2023-05-06T02:02:30.340Z,71.15
2023-05-06T02:03:30.248Z,74.06
2023-05-06T02:04:30.244Z,72.17
2023-05-06T02:05:30.258Z,71.59
2023-05-06T02:06:30.260Z,74.33
2023-05-06T02:07:30.260Z,70.58
2023-05-06T02:08:30.321Z,72.24
2023-05-06T02:09:30.378Z,75.92
2023-05-06T02:10:30.396Z,73.37
2023-05-06T02:11:30.397Z,76.06
2023-05-06T02:12:30.451Z,70.70
2023-05-06T02:13:30.461Z,69.32
2023-05-06T02:14:30.502Z,71.70
2023-05-06T02:15:30.573Z,78.35
2023-05-06T02:16:30.644Z,73.66
2023-05-06T02:17:30.632Z,73.19
2023-05-06T02:18:30.700Z,74.27
2023-05-06T02:19:30.708Z,69.22
2023-05-06T02:20:30.713Z,72.26
2023-05-06T02:21:30.711Z,77.28
2023-05-06T02:22:30.884Z,75.05
2023-05-06T02:23:30.813Z,70.08
2023-05-06T02:24:30.834Z,73.37
2023-05-06T02:25:30.853Z,72.76
2023-05-06T02:26:30.900Z,73.68
2023-05-06T02:27:30.971Z,75.04
2023-05-06T02:28:30.978Z,73.46
2023-05-06T02:29:31.037Z,72.26
2023-05-06T02:30:31.044Z,71.35
2023-05-06T02:31:31.169Z,77.12
2023-05-06T02:32:31.111Z,69.94
2023-05-06T02:33:31.282Z,71.96
2023-05-06T02:34:31.142Z,70.01
2023-05-06T02:35:31.181Z,72.82
2023-05-06T02:36:31.234Z,72.78
2023-05-06T02:37:31.295Z,71.42
2023-05-06T02:38:31.303Z,74.62
2023-05-06T02:39:31.355Z,74.44
2023-05-06T02:40:31.372Z,67.05
2023-05-06T02:41:31.427Z,72.48
2023-05-06T02:42:31.481Z,69.69
2023-05-06T02:43:31.452Z,73.64
2023-05-06T02:44:31.527Z,76.11
2023-05-06T02:45:31.580Z,69.35
2023-05-06T02:46:31.565Z,72.74
2023-05-06T02:47:31.640Z,70.67
2023-05-06T02:48:31.773Z,70.07
2023-05-06T02:49:31.684Z,68.68
2023-05-06T02:50:31.705Z,72.55
2023-05-06T02:51:31.744Z,72.26
2023-05-06T02:52:31.748Z,71.71
2023-05-06T02:53:31.769Z,74.93
2023-05-06T02:54:31.820Z,74.49
2023-05-06T02:55:31.850Z,73.81
2023-05-06T02:56:31.845Z,70.87
2023-05-06T02:57:31.887Z,68.14
2023-05-06T02:58:31.932Z,70.12
2023-05-06T02:59:32.005Z,72.10
2023-05-06T03:00:32.008Z,73.02
2023-05-06T03:01:32.144Z,71.66
2023-05-06T03:02:32.198Z,68.98
2023-05-06T03:03:32.143Z,70.87
2023-05-06T03:04:32.176Z,69.58
2023-05-06T03:05:32.154Z,69.44
2023-05-06T03:06:32.217Z,70.19
2023-05-06T03:07:32.189Z,74.37
2023-05-06T03:08:32.234Z,72.73
2023-05-06T03:09:32.288Z,74.41
2023-05-06T03:10:32.304Z,71.58
2023-05-06T03:11:32.353Z,73.51
2023-05-06T03:12:32.392Z,69.64
2023-05-06T03:13:32.412Z,68.87
2023-05-06T03:14:32.427Z,70.02
2023-05-06T03:15:32.468Z,69.99
2023-05-06T03:16:32.577Z,70.64
2023-05-06T03:17:32.619Z,72.35
2023-05-06T03:18:32.515Z,67.50
2023-05-06T03:19:32.559Z,73.11
2023-05-06T03:20:32.604Z,74.29
2023-05-06T03:21:32.659Z,70.34
2023-05-06T03:22:32.630Z,73.70
2023-05-06T03:23:32.644Z,71.02
2023-05-06T03:24:32.684Z,74.19
2023-05-06T03:25:32.747Z,71.72
2023-05-06T03:26:32.771Z,70.22
2023-05-06T03:27:32.783Z,69.67
2023-05-06T03:28:32.823Z,70.42
2023-05-06T03:29:32.863Z,68.25
2023-05-06T03:30:32.882Z,69.25
2023-05-06T03:31:32.952Z,72.16
2023-05-06T03:32:33.025Z,71.56
2023-05-06T03:33:33.027Z,71.06
2023-05-06T03:34:33.029Z,70.10
2023-05-06T03:35:33.048Z,69.99
2023-05-06T03:36:33.067Z,68.47
2023-05-06T03:37:33.105Z,67.09
2023-05-06T03:38:33.162Z,71.96
2023-05-06T03:39:33.132Z,70.07
2023-05-06T03:40:33.156Z,70.27
2023-05-06T03:41:33.196Z,70.60
2023-05-06T03:42:33.223Z,72.18
2023-05-06T03:43:33.252Z,69.32
2023-05-06T03:44:33.278Z,67.29
2023-05-06T03:45:33.333Z,65.69
2023-05-06T03:46:33.412Z,71.69
2023-05-06T03:47:33.451Z,69.41
2023-05-06T03:48:33.408Z,73.80
2023-05-06T03:49:33.656Z,69.61
2023-05-06T03:50:33.492Z,69.73
2023-05-06T03:51:33.504Z,70.41
2023-05-06T03:52:33.541Z,70.48
2023-05-06T03:53:33.580Z,65.73
2023-05-06T03:54:33.622Z,67.63
2023-05-06T03:55:33.610Z,68.43
2023-05-06T03:56:33.675Z,65.94
2023-05-06T03:57:33.705Z,68.06
2023-05-06T03:58:33.705Z,69.21
2023-05-06T03:59:33.755Z,70.93
2023-05-06T04:00:33.800Z,70.04
2023-05-06T04:01:33.803Z,66.70
2023-05-06T04:02:34.032Z,68.66
2023-05-06T04:03:33.951Z,69.77
2023-05-06T04:04:33.881Z,65.10
2023-05-06T04:05:34.067Z,69.42
2023-05-06T04:06:33.935Z,71.51
2023-05-06T04:07:34.018Z,69.38
2023-05-06T04:08:34.323Z,64.84
2023-05-06T04:09:34.039Z,64.96
2023-05-06T04:10:34.054Z,66.50
2023-05-06T04:11:34.109Z,66.04
2023-05-06T04:12:34.174Z,67.48
2023-05-06T04:13:34.156Z,67.10
2023-05-06T04:14:34.191Z,71.27
2023-05-06T04:15:34.224Z,68.54
2023-05-06T04:16:34.367Z,70.57
2023-05-06T04:17:34.293Z,67.19
2023-05-06T04:18:34.383Z,64.78
2023-05-06T04:19:34.389Z,67.29
2023-05-06T04:20:34.404Z,69.81
2023-05-06T04:21:34.478Z,66.91
2023-05-06T04:22:34.464Z,67.14
2023-05-06T04:23:34.516Z,68.52
2023-05-06T04:24:34.539Z,68.77
2023-05-06T04:25:34.573Z,67.12
2023-05-06T04:26:34.580Z,65.33
2023-05-06T04:27:34.646Z,65.00
2023-05-06T04:28:34.680Z,69.07
2023-05-06T04:29:34.694Z,66.38
2023-05-06T04:30:34.729Z,66.54
2023-05-06T04:31:34.785Z,68.20
2023-05-06T04:32:34.873Z,63.01
2023-05-06T04:33:34.855Z,66.15
2023-05-06T04:34:34.843Z,65.18
2023-05-06T04:35:34.877Z,64.58
2023-05-06T04:36:34.927Z,68.43
2023-05-06T04:37:35.013Z,66.62
2023-05-06T04:38:35.000Z,64.10
2023-05-06T04:39:35.010Z,67.39
2023-05-06T04:40:35.055Z,67.56
2023-05-06T04:41:35.075Z,66.53
2023-05-06T04:42:35.104Z,67.59
2023-05-06T04:43:35.145Z,63.93
2023-05-06T04:44:35.196Z,63.69
2023-05-06T04:45:35.248Z,66.31
2023-05-06T04:46:35.253Z,63.40
2023-05-06T04:47:35.351Z,68.96
2023-05-06T04:48:35.337Z,65.96
2023-05-06T04:49:35.363Z,66.49
2023-05-06T04:50:35.411Z,65.83
2023-05-06T04:51:35.443Z,66.82
2023-05-06T04:52:35.449Z,64.83
2023-05-06T04:53:35.552Z,66.43
2023-05-06T04:54:35.518Z,63.96
2023-05-06T04:55:36.345Z,67.34
2023-05-06T04:56:35.578Z,66.03
2023-05-06T04:57:35.640Z,67.94
2023-05-06T04:58:35.698Z,66.64
2023-05-06T04:59:35.700Z,66.17
2023-05-06T05:00:35.744Z,67.64
2023-05-06T05:01:35.793Z,67.64
2023-05-06T05:02:35.839Z,68.25
2023-05-06T05:03:35.855Z,67.61
2023-05-06T05:04:35.871Z,64.80
2023-05-06T05:05:35.958Z,66.82
2023-05-06T05:06:35.956Z,64.08
2023-05-06T05:07:36.012Z,62.26
2023-05-06T05:08:36.039Z,66.56
2023-05-06T05:09:36.124Z,66.11
2023-05-06T05:10:36.154Z,66.96
2023-05-06T05:11:36.148Z,62.47
2023-05-06T05:12:36.252Z,62.39
2023-05-06T05:13:36.205Z,68.27
2023-05-06T05:14:36.254Z,64.61
2023-05-06T05:15:36.267Z,66.31
2023-05-06T05:16:36.377Z,63.73
2023-05-06T05:17:36.409Z,61.81
2023-05-06T05:18:36.428Z,68.91
2023-05-06T05:19:36.446Z,67.70
2023-05-06T05:20:36.483Z,69.80
2023-05-06T05:21:36.515Z,64.81
2023-05-06T05:22:36.581Z,63.69
2023-05-06T05:23:36.613Z,66.09
2023-05-06T05:24:36.637Z,68.37
2023-05-06T05:25:36.656Z,62.18
2023-05-06T05:26:36.735Z,64.68
2023-05-06T05:27:36.768Z,63.23
2023-05-06T05:28:36.864Z,61.88
2023-05-06T05:29:36.884Z,67.37
2023-05-06T05:30:36.889Z,68.08
2023-05-06T05:31:37.026Z,63.43
2023-05-06T05:32:37.061Z,64.97
2023-05-06T05:33:37.074Z,69.07
2023-05-06T05:34:37.070Z,68.81
2023-05-06T05:35:37.114Z,67.61
2023-05-06T05:36:37.108Z,67.35
2023-05-06T05:37:37.209Z,63.48
2023-05-06T05:38:37.199Z,64.11
2023-05-06T05:39:37.241Z,64.40
2023-05-06T05:40:37.288Z,69.13
2023-05-06T05:41:37.321Z,65.83
2023-05-06T05:42:37.327Z,66.48
2023-05-06T05:43:37.399Z,68.37
2023-05-06T05:44:37.440Z,66.91
2023-05-06T05:45:37.456Z,64.60
2023-05-06T05:46:37.518Z,66.34
2023-05-06T05:47:37.585Z,64.33
2023-05-06T05:48:37.575Z,62.43
2023-05-06T05:49:37.629Z,66.12
2023-05-06T05:50:37.692Z,67.83
2023-05-06T05:51:37.694Z,65.18
2023-05-06T05:52:37.742Z,65.33
2023-05-06T05:53:37.822Z,63.21
2023-05-06T05:54:37.869Z,65.11
2023-05-06T05:55:37.891Z,64.68
2023-05-06T05:56:37.896Z,60.76
2023-05-06T05:57:37.997Z,67.05
2023-05-06T05:58:37.986Z,62.65
2023-05-06T05:59:38.060Z,62.26
2023-05-06T06:00:38.086Z,62.21
2023-05-06T06:01:38.120Z,67.64
2023-05-06T06:02:38.240Z,65.62
2023-05-06T06:03:38.353Z,66.82
2023-05-06T06:04:38.335Z,62.46
2023-05-06T06:05:38.322Z,62.69
2023-05-06T06:06:38.313Z,65.07
2023-05-06T06:07:38.321Z,63.54
2023-05-06T06:08:38.370Z,65.47
2023-05-06T06:09:38.435Z,66.30
2023-05-06T06:10:38.438Z,63.61
2023-05-06T06:11:38.536Z,61.86
2023-05-06T06:12:38.612Z,64.01
2023-05-06T06:13:38.563Z,60.53
2023-05-06T06:14:38.566Z,64.55
2023-05-06T06:15:38.634Z,61.75
2023-05-06T06:16:38.822Z,60.72
2023-05-06T06:17:38.842Z,59.77
2023-05-06T06:18:38.746Z,60.00
2023-05-06T06:19:38.748Z,63.85
2023-05-06T06:20:38.842Z,63.07
2023-05-06T06:21:38.781Z,61.00
2023-05-06T06:22:38.877Z,63.12
2023-05-06T06:23:38.938Z,61.46
2023-05-06T06:24:38.962Z,62.29
2023-05-06T06:25:38.958Z,65.63
2023-05-06T06:26:39.005Z,61.98
2023-05-06T06:27:39.030Z,57.12
2023-05-06T06:28:39.092Z,60.98
2023-05-06T06:29:39.154Z,60.01
2023-05-06T06:30:39.127Z,63.45
2023-05-06T06:31:40.688Z,61.99
2023-05-06T06:32:39.253Z,63.35
2023-05-06T06:33:39.263Z,59.45
2023-05-06T06:34:39.299Z,63.58
2023-05-06T06:35:39.329Z,63.47
2023-05-06T06:36:39.386Z,59.95
2023-05-06T06:37:39.455Z,66.89
2023-05-06T06:38:39.464Z,62.62
2023-05-06T06:39:39.463Z,60.96
2023-05-06T06:40:39.500Z,61.49
2023-05-06T06:41:39.546Z,61.53
2023-05-06T06:42:39.605Z,61.75
2023-05-06T06:43:39.658Z,64.24
2023-05-06T06:44:39.709Z,64.25
2023-05-06T06:45:39.761Z,62.09
2023-05-06T06:46:39.758Z,66.35
2023-05-06T06:47:39.852Z,62.50
2023-05-06T06:48:39.870Z,60.36
2023-05-06T06:49:39.831Z,64.15
2023-05-06T06:50:39.910Z,68.81
2023-05-06T06:51:39.930Z,62.09
2023-05-06T06:52:39.976Z,63.44
2023-05-06T06:53:39.993Z,62.68
2023-05-06T06:54:40.093Z,64.02
2023-05-06T06:55:40.099Z,67.16
2023-05-06T06:56:40.145Z,65.37
2023-05-06T06:57:40.139Z,64.80
2023-05-06T06:58:40.227Z,65.30
2023-05-06T06:59:40.257Z,63.10
2023-05-06T07:00:40.280Z,63.47
2023-05-06T07:01:40.632Z,64.24
2023-05-06T07:02:40.359Z,65.60
2023-05-06T07:03:40.459Z,67.88
2023-05-06T07:04:40.509Z,62.96
2023-05-06T07:05:40.508Z,61.71
2023-05-06T07:06:40.539Z,61.46
2023-05-06T07:07:40.582Z,64.28
2023-05-06T07:08:40.645Z,63.78
2023-05-06T07:09:40.681Z,62.53
2023-05-06T07:10:40.735Z,66.08
2023-05-06T07:11:40.784Z,66.90
2023-05-06T07:12:40.850Z,65.62
2023-05-06T07:13:40.848Z,62.97
2023-05-06T07:14:40.858Z,65.23
2023-05-06T07:15:40.920Z,65.75
2023-05-06T07:16:41.057Z,64.12
2023-05-06T07:17:41.170Z,61.76
2023-05-06T07:18:41.038Z,63.05
2023-05-06T07:19:41.120Z,64.41
2023-05-06T07:20:41.162Z,67.38
2023-05-06T07:21:41.148Z,61.52
2023-05-06T07:22:41.349Z,63.44
2023-05-06T07:23:41.381Z,64.91
2023-05-06T07:24:41.343Z,66.15
2023-05-06T07:25:41.369Z,62.33
2023-05-06T07:26:41.372Z,60.76
2023-05-06T07:27:42.392Z,62.53
2023-05-06T07:28:41.452Z,61.83
2023-05-06T07:29:41.489Z,61.50
2023-05-06T07:30:41.550Z,65.83
2023-05-06T07:31:41.604Z,61.22
2023-05-06T07:32:41.655Z,64.61
2023-05-06T07:33:41.721Z,58.45
2023-05-06T07:34:41.726Z,62.49
2023-05-06T07:35:41.736Z,65.38
2023-05-06T07:36:41.804Z,64.88
2023-05-06T07:37:41.778Z,59.88
2023-05-06T07:38:41.867Z,62.64
2023-05-06T07:39:41.867Z,58.03
2023-05-06T07:40:41.941Z,60.39
2023-05-06T07:41:41.958Z,60.33
2023-05-06T07:42:43.217Z,61.47
2023-05-06T07:43:42.071Z,67.41
2023-05-06T07:44:42.081Z,63.02
2023-05-06T07:45:42.137Z,64.91
2023-05-06T07:46:42.330Z,61.50
2023-05-06T07:47:42.253Z,62.61
2023-05-06T07:48:42.234Z,63.83
2023-05-06T07:49:42.416Z,62.67
2023-05-06T07:50:42.326Z,62.61
2023-05-06T07:51:42.354Z,66.74
2023-05-06T07:52:42.381Z,65.55
2023-05-06T07:53:42.421Z,65.07
2023-05-06T07:54:42.468Z,65.48
2023-05-06T07:55:42.618Z,63.91
2023-05-06T07:56:42.561Z,64.30
2023-05-06T07:57:42.620Z,62.64
2023-05-06T07:58:42.610Z,66.79
2023-05-06T07:59:42.643Z,63.26
2023-05-06T08:00:42.693Z,63.29
2023-05-06T08:01:42.734Z,63.37
2023-05-06T08:02:42.805Z,62.72
2023-05-06T08:03:43.095Z,63.80
2023-05-06T08:04:43.011Z,64.63
2023-05-06T08:05:42.962Z,62.69
2023-05-06T08:06:42.955Z,65.95
2023-05-06T08:07:42.978Z,61.59
2023-05-06T08:08:42.990Z,65.04
2023-05-06T08:09:43.054Z,64.59
2023-05-06T08:10:43.105Z,62.52
2023-05-06T08:11:43.160Z,64.78
2023-05-06T08:12:43.208Z,64.51
2023-05-06T08:13:43.250Z,63.67
2023-05-06T08:14:43.295Z,65.23
2023-05-06T08:15:43.309Z,62.76
2023-05-06T08:16:43.437Z,63.13
2023-05-06T08:17:43.426Z,62.68
2023-05-06T08:18:43.442Z,66.14
2023-05-06T08:19:43.484Z,66.16
2023-05-06T08:20:43.501Z,61.34
2023-05-06T08:21:43.615Z,65.15
2023-05-06T08:22:43.612Z,63.04
2023-05-06T08:23:43.670Z,63.76
2023-05-06T08:24:43.673Z,65.57
2023-05-06T08:25:43.755Z,63.79
2023-05-06T08:26:43.794Z,65.16
2023-05-06T08:27:43.856Z,63.91
2023-05-06T08:28:43.870Z,60.40
2023-05-06T08:29:43.873Z,63.95
2023-05-06T08:30:43.946Z,64.76
2023-05-06T08:31:44.045Z,63.29
2023-05-06T08:32:44.059Z,62.35
2023-05-06T08:33:44.099Z,61.40
2023-05-06T08:34:44.117Z,61.16
2023-05-06T08:35:44.155Z,62.62
2023-05-06T08:36:44.228Z,62.35
2023-05-06T08:37:44.314Z,63.64
2023-05-06T08:38:44.294Z,62.85
2023-05-06T08:39:44.323Z,60.86
2023-05-06T08:40:44.378Z,66.86
2023-05-06T08:41:44.411Z,65.70
2023-05-06T08:42:44.414Z,63.65
2023-05-06T08:43:44.465Z,60.14
2023-05-06T08:44:44.488Z,62.87
2023-05-06T08:45:44.510Z,64.84
2023-05-06T08:46:44.534Z,64.37
2023-05-06T08:47:44.603Z,62.49
2023-05-06T08:48:44.668Z,63.90
2023-05-06T08:49:44.674Z,65.80
2023-05-06T08:50:44.705Z,59.71
2023-05-06T08:51:44.734Z,60.46
2023-05-06T08:52:44.799Z,64.15
2023-05-06T08:53:44.836Z,67.30
2023-05-06T08:54:44.871Z,64.87
2023-05-06T08:55:44.910Z,63.95
2023-05-06T08:56:44.930Z,63.88
2023-05-06T08:57:44.984Z,61.91
2023-05-06T08:58:44.997Z,61.55
2023-05-06T08:59:45.047Z,62.90
2023-05-06T09:00:45.115Z,63.38
2023-05-06T09:01:45.209Z,62.18
2023-05-06T09:02:45.232Z,65.18
2023-05-06T09:03:45.209Z,63.72
2023-05-06T09:04:45.229Z,63.36
2023-05-06T09:05:45.213Z,64.88
2023-05-06T09:06:45.287Z,65.34
2023-05-06T09:07:45.300Z,60.86
2023-05-06T09:08:45.343Z,63.07
2023-05-06T09:09:45.476Z,59.80
2023-05-06T09:10:45.452Z,59.72
2023-05-06T09:11:45.434Z,63.90
2023-05-06T09:12:45.500Z,64.49
2023-05-06T09:13:45.505Z,63.08
2023-05-06T09:14:45.651Z,61.63
2023-05-06T09:15:45.617Z,65.80
2023-05-06T09:16:45.733Z,62.44
2023-05-06T09:17:45.681Z,64.01
2023-05-06T09:18:45.712Z,61.99
2023-05-06T09:19:45.737Z,62.29
2023-05-06T09:20:45.762Z,64.49
2023-05-06T09:21:45.818Z,64.22
2023-05-06T09:22:45.809Z,64.29
2023-05-06T09:23:45.858Z,61.01
2023-05-06T09:24:45.892Z,64.00
2023-05-06T09:25:45.985Z,66.20
2023-05-06T09:26:45.987Z,59.22
2023-05-06T09:27:46.000Z,65.95
2023-05-06T09:28:46.038Z,64.37
2023-05-06T09:29:46.064Z,65.92
2023-05-06T09:30:46.160Z,64.26
2023-05-06T09:31:46.199Z,61.76
2023-05-06T09:32:46.220Z,61.38
2023-05-06T09:33:46.235Z,63.39
2023-05-06T09:34:46.250Z,64.91
2023-05-06T09:35:46.268Z,60.19
2023-05-06T09:36:46.343Z,63.95
2023-05-06T09:37:46.366Z,67.04
2023-05-06T09:38:46.441Z,66.54
2023-05-06T09:39:46.445Z,64.70
2023-05-06T09:40:46.450Z,64.05
2023-05-06T09:41:46.564Z,64.26
2023-05-06T09:42:46.523Z,67.47
2023-05-06T09:43:46.589Z,63.10
2023-05-06T09:44:46.624Z,62.52
2023-05-06T09:45:46.704Z,65.66
2023-05-06T09:46:46.741Z,59.61
2023-05-06T09:47:46.756Z,64.40
2023-05-06T09:48:46.791Z,65.22
2023-05-06T09:49:46.822Z,66.06
2023-05-06T09:50:46.877Z,62.47
2023-05-06T09:51:46.876Z,67.42
2023-05-06T09:52:46.935Z,62.03
2023-05-06T09:53:46.964Z,65.40
2023-05-06T09:54:47.015Z,66.13
2023-05-06T09:55:47.028Z,61.13
2023-05-06T09:56:47.071Z,63.56
2023-05-06T09:57:47.115Z,61.57
2023-05-06T09:58:47.164Z,67.00
2023-05-06T09:59:47.193Z,64.60
2023-05-06T10:00:47.252Z,63.96
2023-05-06T10:01:47.264Z,60.37
2023-05-06T10:02:47.439Z,66.39
2023-05-06T10:03:47.466Z,65.52
2023-05-06T10:04:47.517Z,61.56
2023-05-06T10:05:47.418Z,62.29
2023-05-06T10:06:47.410Z,64.06
2023-05-06T10:07:47.479Z,65.31
2023-05-06T10:08:47.509Z,61.80
2023-05-06T10:09:47.547Z,67.00
2023-05-06T10:10:47.576Z,67.09
2023-05-06T10:11:47.634Z,70.08
2023-05-06T10:12:47.655Z,67.49
2023-05-06T10:13:47.794Z,67.30
2023-05-06T10:14:47.709Z,69.22
2023-05-06T10:15:47.787Z,65.72
2023-05-06T10:16:47.779Z,65.88
2023-05-06T10:17:47.799Z,63.28
2023-05-06T10:18:47.839Z,68.51
2023-05-06T10:19:47.874Z,66.23
2023-05-06T10:20:47.921Z,62.01
2023-05-06T10:21:47.950Z,65.23
2023-05-06T10:22:48.005Z,65.76
2023-05-06T10:23:48.017Z,62.46
2023-05-06T10:24:48.085Z,66.75
2023-05-06T10:25:48.099Z,65.75
2023-05-06T10:26:48.092Z,69.20
2023-05-06T10:27:48.183Z,67.35
2023-05-06T10:28:48.220Z,66.81
2023-05-06T10:29:48.325Z,66.72
2023-05-06T10:30:48.302Z,69.02
2023-05-06T10:31:48.339Z,68.70
2023-05-06T10:32:48.393Z,65.80
2023-05-06T10:33:48.420Z,65.87
2023-05-06T10:34:48.456Z,66.22
2023-05-06T10:35:48.457Z,68.66
2023-05-06T10:36:48.521Z,67.59
2023-05-06T10:37:48.537Z,65.42
2023-05-06T10:38:48.580Z,70.47
2023-05-06T10:39:48.623Z,63.44
2023-05-06T10:40:48.666Z,66.80
2023-05-06T10:41:48.709Z,66.40
2023-05-06T10:42:48.747Z,68.65
2023-05-06T10:43:48.795Z,62.57
2023-05-06T10:44:48.840Z,63.63
2023-05-06T10:45:48.913Z,67.51
2023-05-06T10:46:48.915Z,67.44
2023-05-06T10:47:48.948Z,67.65
2023-05-06T10:48:48.968Z,66.80
2023-05-06T10:49:49.026Z,69.65
2023-05-06T10:50:49.041Z,69.48
2023-05-06T10:51:49.121Z,67.92
2023-05-06T10:52:49.118Z,67.62
2023-05-06T10:53:49.165Z,66.52
2023-05-06T10:54:49.212Z,67.77
2023-05-06T10:55:49.262Z,68.36
2023-05-06T10:56:49.261Z,66.79
2023-05-06T10:57:49.330Z,69.64
2023-05-06T10:58:49.337Z,68.96
2023-05-06T10:59:49.397Z,64.46
2023-05-06T11:00:49.406Z,66.36
2023-05-06T11:01:49.496Z,66.44
2023-05-06T11:02:49.490Z,65.61
2023-05-06T11:03:49.563Z,60.75
2023-05-06T11:04:49.553Z,65.09
2023-05-06T11:05:49.606Z,70.08
2023-05-06T11:06:49.585Z,65.87
2023-05-06T11:07:49.641Z,68.55
2023-05-06T11:08:49.710Z,65.45
2023-05-06T11:09:49.706Z,63.47
2023-05-06T11:10:49.759Z,67.43
2023-05-06T11:11:49.776Z,69.32
2023-05-06T11:12:49.936Z,66.71
2023-05-06T11:13:50.590Z,63.74
2023-05-06T11:14:49.975Z,64.89
2023-05-06T11:15:49.970Z,67.99
2023-05-06T11:16:50.016Z,67.51
2023-05-06T11:17:50.085Z,66.17
2023-05-06T11:18:50.054Z,65.90
2023-05-06T11:19:50.094Z,68.55
2023-05-06T11:20:50.114Z,66.87
2023-05-06T11:21:50.731Z,65.13
2023-05-06T11:22:50.178Z,68.01
2023-05-06T11:23:50.244Z,67.59
2023-05-06T11:24:50.210Z,62.74
2023-05-06T11:25:50.245Z,66.80
2023-05-06T11:26:50.383Z,66.29
2023-05-06T11:27:51.036Z,69.54
2023-05-06T11:28:50.356Z,67.05
2023-05-06T11:29:50.361Z,68.15
2023-05-06T11:30:50.506Z,68.01
2023-05-06T11:31:50.443Z,66.62
2023-05-06T11:32:50.639Z,67.92
2023-05-06T11:33:50.514Z,68.02
2023-05-06T11:34:50.548Z,65.74
2023-05-06T11:35:50.555Z,67.67
2023-05-06T11:36:50.624Z,65.98
2023-05-06T11:37:50.691Z,65.37
2023-05-06T11:38:50.937Z,69.81
2023-05-06T11:39:50.738Z,65.89
2023-05-06T11:40:50.754Z,65.37
2023-05-06T11:41:50.764Z,70.39
2023-05-06T11:42:50.814Z,63.81
2023-05-06T11:43:50.885Z,68.21
2023-05-06T11:44:50.873Z,69.21
2023-05-06T11:45:50.909Z,66.90
2023-05-06T11:46:51.155Z,66.99
2023-05-06T11:47:51.023Z,68.02
2023-05-06T11:48:51.068Z,65.81
2023-05-06T11:49:51.065Z,66.89
2023-05-06T11:50:51.048Z,69.84
2023-05-06T11:51:51.069Z,65.77
2023-05-06T11:52:51.110Z,62.77
2023-05-06T11:53:51.141Z,65.53
2023-05-06T11:54:51.199Z,70.75
2023-05-06T11:55:51.215Z,62.45
2023-05-06T11:56:51.231Z,64.78
2023-05-06T11:57:51.265Z,70.70
2023-05-06T11:58:51.307Z,67.08
2023-05-06T11:59:51.328Z,65.80
2023-05-06T12:00:51.882Z,69.23
2023-05-06T12:01:51.405Z,64.72
2023-05-06T12:02:51.499Z,68.25
2023-05-06T12:03:51.539Z,64.88
2023-05-06T12:04:51.625Z,66.14
2023-05-06T12:05:51.587Z,61.46
2023-05-06T12:06:52.453Z,65.62
2023-05-06T12:07:51.569Z,62.71
2023-05-06T12:08:51.963Z,63.70
2023-05-06T12:09:51.619Z,64.37
2023-05-06T12:10:51.663Z,67.61
2023-05-06T12:11:51.679Z,65.37
2023-05-06T12:12:51.728Z,68.14
2023-05-06T12:13:51.776Z,66.01
2023-05-06T12:14:51.791Z,62.56
2023-05-06T12:15:51.848Z,64.23
2023-05-06T12:16:53.036Z,63.39
2023-05-06T12:17:51.833Z,64.32
2023-05-06T12:18:51.828Z,67.25
2023-05-06T12:19:51.832Z,67.68
2023-05-06T12:20:51.795Z,66.25
2023-05-06T12:21:51.861Z,65.00
2023-05-06T12:22:52.919Z,66.14
2023-05-06T12:23:51.903Z,66.14
2023-05-06T12:24:51.907Z,66.64
2023-05-06T12:25:51.930Z,66.78
2023-05-06T12:26:51.913Z,64.43
2023-05-06T12:27:51.920Z,66.21
2023-05-06T12:28:52.005Z,65.46
2023-05-06T12:29:52.005Z,66.96
2023-05-06T12:30:52.026Z,64.63
2023-05-06T12:31:52.065Z,65.64
2023-05-06T12:32:52.087Z,64.05
2023-05-06T12:33:52.413Z,66.33
2023-05-06T12:34:52.153Z,65.37
2023-05-06T12:35:52.157Z,65.44
2023-05-06T12:36:52.168Z,64.98
2023-05-06T12:37:52.265Z,61.33
2023-05-06T12:38:52.262Z,67.64
2023-05-06T12:39:52.297Z,65.41
2023-05-06T12:40:52.293Z,62.53
2023-05-06T12:41:52.328Z,66.42
2023-05-06T12:42:52.322Z,65.96
2023-05-06T12:43:52.372Z,62.65
2023-05-06T12:44:52.430Z,63.20
2023-05-06T12:45:52.458Z,64.85
2023-05-06T12:46:52.465Z,65.49
2023-05-06T12:47:52.506Z,67.13
2023-05-06T12:48:52.504Z,67.94
2023-05-06T12:49:52.552Z,65.30
2023-05-06T12:50:52.570Z,65.34
2023-05-06T12:51:52.586Z,63.25
2023-05-06T12:52:52.618Z,64.91
2023-05-06T12:53:52.766Z,69.46